sensor_id;sensor_type;location;lat;lon;timestamp;P1;durP1;ratioP1;P2;durP2;ratioP2
62925;SDS011;55732;52.248;-0.844;2022-07-11T00:02:10;4.10;;;2.30;;
62925;SDS011;55732;52.248;-0.844;2022-07-11T00:04:39;3.00;;;2.10;;
62925;SDS011;55732;52.248;-0.844;2022-07-11T00:07:05;4.70;;;1.90;;
62925;SDS011;55732;52.248;-0.844;2022-07-11T00:09:31;3.10;;;2.10;;
62925;SDS011;55732;52.248;-0.844;2022-07-11T00:11:58;6.00;;;2.00;;
62925;SDS011;55732;52.248;-0.844;2022-07-11T00:14:24;4.00;;;2.00;;
62925;SDS011;55732;52.248;-0.844;2022-07-11T00:16:50;5.20;;;2.10;;
62925;SDS011;55732;52.248;-0.844;2022-07-11T00:19:17;2.50;;;2.00;;
62925;SDS011;55732;52.248;-0.844;2022-07-11T00:24:10;3.40;;;1.90;;
62925;SDS011;55732;52.248;-0.844;2022-07-11T00:26:36;8.10;;;2.20;;
62925;SDS011;55732;52.248;-0.844;2022-07-11T00:29:02;2.10;;;1.80;;
62925;SDS011;55732;52.248;-0.844;2022-07-11T00:31:28;3.90;;;2.00;;
62925;SDS011;55732;52.248;-0.844;2022-07-11T00:33:54;2.80;;;2.10;;
62925;SDS011;55732;52.248;-0.844;2022-07-11T00:36:20;4.10;;;2.60;;
62925;SDS011;55732;52.248;-0.844;2022-07-11T00:38:46;3.60;;;2.10;;
62925;SDS011;55732;52.248;-0.844;2022-07-11T00:41:11;2.60;;;2.10;;
62925;SDS011;55732;52.248;-0.844;2022-07-11T00:43:37;5.10;;;2.10;;
62925;SDS011;55732;52.248;-0.844;2022-07-11T00:46:05;4.70;;;2.20;;
62925;SDS011;55732;52.248;-0.844;2022-07-11T00:48:33;4.40;;;2.20;;
62925;SDS011;55732;52.248;-0.844;2022-07-11T00:50:58;4.40;;;2.40;;
62925;SDS011;55732;52.248;-0.844;2022-07-11T00:53:26;4.30;;;2.40;;
62925;SDS011;55732;52.248;-0.844;2022-07-11T00:55:52;3.60;;;2.30;;
62925;SDS011;55732;52.248;-0.844;2022-07-11T00:58:18;3.40;;;2.40;;
62925;SDS011;55732;52.248;-0.844;2022-07-11T01:00:44;3.50;;;2.20;;
62925;SDS011;55732;52.248;-0.844;2022-07-11T01:03:11;3.40;;;2.20;;
62925;SDS011;55732;52.248;-0.844;2022-07-11T01:05:37;3.50;;;2.10;;
62925;SDS011;55732;52.248;-0.844;2022-07-11T01:08:02;3.30;;;2.10;;
62925;SDS011;55732;52.248;-0.844;2022-07-11T01:10:28;5.80;;;2.50;;
62925;SDS011;55732;52.248;-0.844;2022-07-11T01:12:54;2.30;;;1.90;;
62925;SDS011;55732;52.248;-0.844;2022-07-11T01:15:19;4.10;;;2.30;;
62925;SDS011;55732;52.248;-0.844;2022-07-11T01:17:45;2.20;;;1.80;;
62925;SDS011;55732;52.248;-0.844;2022-07-11T01:20:10;3.30;;;2.20;;
62925;SDS011;55732;52.248;-0.844;2022-07-11T01:22:39;3.20;;;2.00;;
62925;SDS011;55732;52.248;-0.844;2022-07-11T01:25:07;9.50;;;2.60;;
62925;SDS011;55732;52.248;-0.844;2022-07-11T01:27:33;3.40;;;2.20;;
62925;SDS011;55732;52.248;-0.844;2022-07-11T01:32:25;3.00;;;2.00;;
62925;SDS011;55732;52.248;-0.844;2022-07-11T01:34:51;3.10;;;2.10;;
62925;SDS011;55732;52.248;-0.844;2022-07-11T01:37:16;6.20;;;2.40;;
62925;SDS011;55732;52.248;-0.844;2022-07-11T01:39:42;2.90;;;2.20;;
62925;SDS011;55732;52.248;-0.844;2022-07-11T01:42:07;3.40;;;2.00;;
62925;SDS011;55732;52.248;-0.844;2022-07-11T01:44:32;4.10;;;2.10;;
62925;SDS011;55732;52.248;-0.844;2022-07-11T01:46:58;8.60;;;2.20;;
62925;SDS011;55732;52.248;-0.844;2022-07-11T01:49:23;2.10;;;1.90;;
62925;SDS011;55732;52.248;-0.844;2022-07-11T01:51:49;6.30;;;2.40;;
62925;SDS011;55732;52.248;-0.844;2022-07-11T01:54:14;4.50;;;2.30;;
62925;SDS011;55732;52.248;-0.844;2022-07-11T01:56:40;3.00;;;2.10;;
62925;SDS011;55732;52.248;-0.844;2022-07-11T01:59:05;3.30;;;2.30;;
62925;SDS011;55732;52.248;-0.844;2022-07-11T02:01:31;3.90;;;2.30;;
62925;SDS011;55732;52.248;-0.844;2022-07-11T02:03:57;4.40;;;2.40;;
62925;SDS011;55732;52.248;-0.844;2022-07-11T02:06:23;4.60;;;2.40;;
62925;SDS011;55732;52.248;-0.844;2022-07-11T02:08:48;6.90;;;2.90;;
62925;SDS011;55732;52.248;-0.844;2022-07-11T02:11:13;4.00;;;2.80;;
62925;SDS011;55732;52.248;-0.844;2022-07-11T02:13:39;3.30;;;2.70;;
62925;SDS011;55732;52.248;-0.844;2022-07-11T02:16:04;4.70;;;2.30;;
62925;SDS011;55732;52.248;-0.844;2022-07-11T02:18:30;6.30;;;2.50;;
62925;SDS011;55732;52.248;-0.844;2022-07-11T02:20:58;4.10;;;2.50;;
62925;SDS011;55732;52.248;-0.844;2022-07-11T02:23:23;6.30;;;2.50;;
62925;SDS011;55732;52.248;-0.844;2022-07-11T02:25:48;7.30;;;3.90;;
62925;SDS011;55732;52.248;-0.844;2022-07-11T02:28:14;3.60;;;2.40;;
62925;SDS011;55732;52.248;-0.844;2022-07-11T02:30:40;3.10;;;2.50;;
62925;SDS011;55732;52.248;-0.844;2022-07-11T02:33:07;3.10;;;2.60;;
62925;SDS011;55732;52.248;-0.844;2022-07-11T02:35:33;3.80;;;2.30;;
62925;SDS011;55732;52.248;-0.844;2022-07-11T02:38:00;4.00;;;2.20;;
62925;SDS011;55732;52.248;-0.844;2022-07-11T02:40:26;3.90;;;2.30;;
62925;SDS011;55732;52.248;-0.844;2022-07-11T02:42:52;3.60;;;2.10;;
62925;SDS011;55732;52.248;-0.844;2022-07-11T02:45:18;3.90;;;2.20;;
62925;SDS011;55732;52.248;-0.844;2022-07-11T02:47:44;3.50;;;2.70;;
62925;SDS011;55732;52.248;-0.844;2022-07-11T02:50:10;3.30;;;2.30;;
62925;SDS011;55732;52.248;-0.844;2022-07-11T02:52:37;2.80;;;2.30;;
62925;SDS011;55732;52.248;-0.844;2022-07-11T02:55:04;3.00;;;2.40;;
62925;SDS011;55732;52.248;-0.844;2022-07-11T02:57:30;5.50;;;2.70;;
62925;SDS011;55732;52.248;-0.844;2022-07-11T02:59:55;5.50;;;2.50;;
62925;SDS011;55732;52.248;-0.844;2022-07-11T03:02:21;4.00;;;2.80;;
62925;SDS011;55732;52.248;-0.844;2022-07-11T03:04:46;3.80;;;2.60;;
62925;SDS011;55732;52.248;-0.844;2022-07-11T03:07:12;3.10;;;2.50;;
62925;SDS011;55732;52.248;-0.844;2022-07-11T03:09:37;4.20;;;2.40;;
62925;SDS011;55732;52.248;-0.844;2022-07-11T03:12:03;3.60;;;2.40;;
62925;SDS011;55732;52.248;-0.844;2022-07-11T03:14:29;4.40;;;2.70;;
62925;SDS011;55732;52.248;-0.844;2022-07-11T03:16:54;4.20;;;2.30;;
62925;SDS011;55732;52.248;-0.844;2022-07-11T03:19:20;3.30;;;2.50;;
62925;SDS011;55732;52.248;-0.844;2022-07-11T03:21:45;6.00;;;2.50;;
62925;SDS011;55732;52.248;-0.844;2022-07-11T03:24:11;4.90;;;2.80;;
62925;SDS011;55732;52.248;-0.844;2022-07-11T03:26:36;4.50;;;2.50;;
62925;SDS011;55732;52.248;-0.844;2022-07-11T03:29:03;3.10;;;2.40;;
62925;SDS011;55732;52.248;-0.844;2022-07-11T03:31:29;5.60;;;2.70;;
62925;SDS011;55732;52.248;-0.844;2022-07-11T03:33:54;4.70;;;2.10;;
62925;SDS011;55732;52.248;-0.844;2022-07-11T03:36:19;2.80;;;2.20;;
62925;SDS011;55732;52.248;-0.844;2022-07-11T03:38:45;3.80;;;2.30;;
62925;SDS011;55732;52.248;-0.844;2022-07-11T03:41:10;3.40;;;2.40;;
62925;SDS011;55732;52.248;-0.844;2022-07-11T03:43:36;3.80;;;2.70;;
62925;SDS011;55732;52.248;-0.844;2022-07-11T03:46:01;6.10;;;2.70;;
62925;SDS011;55732;52.248;-0.844;2022-07-11T03:48:26;2.90;;;2.30;;
62925;SDS011;55732;52.248;-0.844;2022-07-11T03:50:52;3.10;;;2.40;;
62925;SDS011;55732;52.248;-0.844;2022-07-11T03:53:17;6.30;;;2.70;;
62925;SDS011;55732;52.248;-0.844;2022-07-11T03:55:43;3.70;;;2.50;;
62925;SDS011;55732;52.248;-0.844;2022-07-11T03:58:08;2.60;;;2.20;;
62925;SDS011;55732;52.248;-0.844;2022-07-11T04:00:33;4.90;;;2.40;;
62925;SDS011;55732;52.248;-0.844;2022-07-11T04:02:59;4.40;;;2.70;;
62925;SDS011;55732;52.248;-0.844;2022-07-11T04:05:25;3.20;;;2.60;;
62925;SDS011;55732;52.248;-0.844;2022-07-11T04:07:52;3.60;;;2.80;;
62925;SDS011;55732;52.248;-0.844;2022-07-11T04:10:17;4.20;;;2.50;;
62925;SDS011;55732;52.248;-0.844;2022-07-11T04:12:43;3.80;;;2.60;;
62925;SDS011;55732;52.248;-0.844;2022-07-11T04:15:09;3.00;;;2.40;;
62925;SDS011;55732;52.248;-0.844;2022-07-11T04:17:35;4.40;;;2.80;;
62925;SDS011;55732;52.248;-0.844;2022-07-11T04:20:01;5.20;;;2.90;;
62925;SDS011;55732;52.248;-0.844;2022-07-11T04:22:28;3.50;;;2.50;;
62925;SDS011;55732;52.248;-0.844;2022-07-11T04:24:53;3.50;;;2.70;;
62925;SDS011;55732;52.248;-0.844;2022-07-11T04:27:18;2.90;;;2.50;;
62925;SDS011;55732;52.248;-0.844;2022-07-11T04:29:44;3.00;;;2.30;;
62925;SDS011;55732;52.248;-0.844;2022-07-11T04:32:09;4.30;;;2.70;;
62925;SDS011;55732;52.248;-0.844;2022-07-11T04:34:35;3.10;;;2.50;;
62925;SDS011;55732;52.248;-0.844;2022-07-11T04:37:00;5.00;;;2.80;;
62925;SDS011;55732;52.248;-0.844;2022-07-11T04:39:25;2.80;;;2.30;;
62925;SDS011;55732;52.248;-0.844;2022-07-11T04:41:51;3.40;;;2.50;;
62925;SDS011;55732;52.248;-0.844;2022-07-11T04:44:17;3.70;;;2.50;;
62925;SDS011;55732;52.248;-0.844;2022-07-11T04:46:42;4.20;;;2.40;;
62925;SDS011;55732;52.248;-0.844;2022-07-11T04:49:07;2.40;;;2.20;;
62925;SDS011;55732;52.248;-0.844;2022-07-11T04:51:33;4.20;;;2.60;;
62925;SDS011;55732;52.248;-0.844;2022-07-11T04:53:58;3.50;;;2.50;;
62925;SDS011;55732;52.248;-0.844;2022-07-11T04:56:24;4.20;;;2.70;;
62925;SDS011;55732;52.248;-0.844;2022-07-11T04:58:49;3.40;;;2.60;;
62925;SDS011;55732;52.248;-0.844;2022-07-11T05:01:14;3.70;;;2.30;;
62925;SDS011;55732;52.248;-0.844;2022-07-11T05:03:40;6.30;;;2.60;;
62925;SDS011;55732;52.248;-0.844;2022-07-11T05:06:05;4.20;;;2.40;;
62925;SDS011;55732;52.248;-0.844;2022-07-11T05:08:31;3.70;;;2.70;;
62925;SDS011;55732;52.248;-0.844;2022-07-11T05:11:01;4.70;;;2.80;;
62925;SDS011;55732;52.248;-0.844;2022-07-11T05:13:29;6.90;;;2.50;;
62925;SDS011;55732;52.248;-0.844;2022-07-11T05:15:55;5.90;;;3.10;;
62925;SDS011;55732;52.248;-0.844;2022-07-11T05:18:21;5.50;;;3.10;;
62925;SDS011;55732;52.248;-0.844;2022-07-11T05:20:46;7.90;;;3.20;;
62925;SDS011;55732;52.248;-0.844;2022-07-11T05:23:13;6.40;;;2.80;;
62925;SDS011;55732;52.248;-0.844;2022-07-11T05:25:39;4.10;;;2.70;;
62925;SDS011;55732;52.248;-0.844;2022-07-11T05:28:04;4.20;;;3.10;;
62925;SDS011;55732;52.248;-0.844;2022-07-11T05:30:30;5.00;;;3.40;;
62925;SDS011;55732;52.248;-0.844;2022-07-11T05:32:55;3.70;;;2.90;;
62925;SDS011;55732;52.248;-0.844;2022-07-11T05:35:21;4.80;;;3.00;;
62925;SDS011;55732;52.248;-0.844;2022-07-11T05:37:46;5.30;;;3.10;;
62925;SDS011;55732;52.248;-0.844;2022-07-11T05:40:12;10.70;;;3.00;;
62925;SDS011;55732;52.248;-0.844;2022-07-11T05:42:37;5.90;;;3.20;;
62925;SDS011;55732;52.248;-0.844;2022-07-11T05:45:02;7.30;;;3.10;;
62925;SDS011;55732;52.248;-0.844;2022-07-11T05:47:28;6.00;;;2.90;;
62925;SDS011;55732;52.248;-0.844;2022-07-11T05:49:53;6.70;;;2.90;;
62925;SDS011;55732;52.248;-0.844;2022-07-11T05:52:19;3.70;;;2.70;;
62925;SDS011;55732;52.248;-0.844;2022-07-11T05:54:44;5.40;;;2.80;;
62925;SDS011;55732;52.248;-0.844;2022-07-11T05:57:09;5.80;;;3.10;;
62925;SDS011;55732;52.248;-0.844;2022-07-11T05:59:35;5.80;;;2.80;;
62925;SDS011;55732;52.248;-0.844;2022-07-11T06:02:04;5.60;;;2.90;;
62925;SDS011;55732;52.248;-0.844;2022-07-11T06:04:32;5.50;;;3.00;;
62925;SDS011;55732;52.248;-0.844;2022-07-11T06:06:58;4.80;;;2.90;;
62925;SDS011;55732;52.248;-0.844;2022-07-11T06:09:23;6.00;;;2.90;;
62925;SDS011;55732;52.248;-0.844;2022-07-11T06:11:49;3.90;;;2.80;;
62925;SDS011;55732;52.248;-0.844;2022-07-11T06:14:14;5.00;;;2.80;;
62925;SDS011;55732;52.248;-0.844;2022-07-11T06:16:40;7.40;;;2.70;;
62925;SDS011;55732;52.248;-0.844;2022-07-11T06:19:05;13.10;;;2.90;;
62925;SDS011;55732;52.248;-0.844;2022-07-11T06:21:31;4.90;;;2.80;;
62925;SDS011;55732;52.248;-0.844;2022-07-11T06:23:56;6.20;;;3.20;;
62925;SDS011;55732;52.248;-0.844;2022-07-11T06:26:22;4.40;;;2.60;;
62925;SDS011;55732;52.248;-0.844;2022-07-11T06:28:47;5.00;;;2.70;;
62925;SDS011;55732;52.248;-0.844;2022-07-11T06:31:13;5.30;;;2.80;;
62925;SDS011;55732;52.248;-0.844;2022-07-11T06:33:38;4.50;;;2.50;;
62925;SDS011;55732;52.248;-0.844;2022-07-11T06:36:04;4.40;;;2.40;;
62925;SDS011;55732;52.248;-0.844;2022-07-11T06:38:31;3.90;;;2.60;;
62925;SDS011;55732;52.248;-0.844;2022-07-11T06:40:56;8.30;;;2.70;;
62925;SDS011;55732;52.248;-0.844;2022-07-11T06:43:22;6.70;;;3.10;;
62925;SDS011;55732;52.248;-0.844;2022-07-11T06:45:48;4.70;;;2.70;;
62925;SDS011;55732;52.248;-0.844;2022-07-11T06:48:14;2.80;;;2.50;;
62925;SDS011;55732;52.248;-0.844;2022-07-11T06:50:40;6.70;;;2.60;;
62925;SDS011;55732;52.248;-0.844;2022-07-11T06:53:06;5.70;;;2.50;;
62925;SDS011;55732;52.248;-0.844;2022-07-11T06:55:32;4.70;;;2.40;;
62925;SDS011;55732;52.248;-0.844;2022-07-11T06:57:58;4.00;;;2.50;;
62925;SDS011;55732;52.248;-0.844;2022-07-11T07:00:24;4.70;;;2.50;;
62925;SDS011;55732;52.248;-0.844;2022-07-11T07:02:49;11.40;;;2.70;;
62925;SDS011;55732;52.248;-0.844;2022-07-11T07:05:15;3.90;;;2.60;;
62925;SDS011;55732;52.248;-0.844;2022-07-11T07:07:40;5.10;;;2.40;;
62925;SDS011;55732;52.248;-0.844;2022-07-11T07:10:06;4.00;;;2.50;;
62925;SDS011;55732;52.248;-0.844;2022-07-11T07:12:32;8.90;;;2.60;;
62925;SDS011;55732;52.248;-0.844;2022-07-11T07:14:59;6.50;;;2.70;;
62925;SDS011;55732;52.248;-0.844;2022-07-11T07:17:25;4.40;;;2.80;;
62925;SDS011;55732;52.248;-0.844;2022-07-11T07:19:50;5.40;;;2.60;;
62925;SDS011;55732;52.248;-0.844;2022-07-11T07:22:16;3.80;;;2.40;;
62925;SDS011;55732;52.248;-0.844;2022-07-11T07:24:42;6.00;;;2.80;;
62925;SDS011;55732;52.248;-0.844;2022-07-11T07:29:34;4.80;;;2.40;;
62925;SDS011;55732;52.248;-0.844;2022-07-11T07:32:00;4.20;;;2.50;;
62925;SDS011;55732;52.248;-0.844;2022-07-11T07:34:25;5.90;;;2.90;;
62925;SDS011;55732;52.248;-0.844;2022-07-11T07:36:51;5.80;;;2.50;;
62925;SDS011;55732;52.248;-0.844;2022-07-11T07:39:17;9.60;;;2.50;;
62925;SDS011;55732;52.248;-0.844;2022-07-11T07:41:42;6.10;;;2.40;;
62925;SDS011;55732;52.248;-0.844;2022-07-11T07:44:08;4.40;;;2.20;;
62925;SDS011;55732;52.248;-0.844;2022-07-11T07:46:34;4.20;;;2.50;;
62925;SDS011;55732;52.248;-0.844;2022-07-11T07:48:59;7.20;;;2.50;;
62925;SDS011;55732;52.248;-0.844;2022-07-11T07:51:25;8.70;;;2.20;;
62925;SDS011;55732;52.248;-0.844;2022-07-11T07:53:51;9.40;;;2.50;;
62925;SDS011;55732;52.248;-0.844;2022-07-11T07:56:17;4.80;;;2.30;;
62925;SDS011;55732;52.248;-0.844;2022-07-11T07:58:42;8.00;;;2.20;;
62925;SDS011;55732;52.248;-0.844;2022-07-11T08:01:08;5.40;;;2.00;;
62925;SDS011;55732;52.248;-0.844;2022-07-11T08:03:52;2.40;;;1.80;;
62925;SDS011;55732;52.248;-0.844;2022-07-11T08:06:19;3.90;;;2.00;;
62925;SDS011;55732;52.248;-0.844;2022-07-11T08:08:45;3.50;;;2.10;;
62925;SDS011;55732;52.248;-0.844;2022-07-11T08:11:11;4.40;;;2.10;;
62925;SDS011;55732;52.248;-0.844;2022-07-11T08:13:36;4.70;;;2.30;;
62925;SDS011;55732;52.248;-0.844;2022-07-11T08:16:05;4.40;;;2.30;;
62925;SDS011;55732;52.248;-0.844;2022-07-11T08:18:32;4.10;;;2.00;;
62925;SDS011;55732;52.248;-0.844;2022-07-11T08:20:57;7.50;;;2.10;;
62925;SDS011;55732;52.248;-0.844;2022-07-11T08:23:23;7.40;;;2.10;;
62925;SDS011;55732;52.248;-0.844;2022-07-11T08:25:48;2.80;;;1.90;;
62925;SDS011;55732;52.248;-0.844;2022-07-11T08:28:14;7.80;;;2.40;;
62925;SDS011;55732;52.248;-0.844;2022-07-11T08:30:39;5.30;;;2.00;;
62925;SDS011;55732;52.248;-0.844;2022-07-11T08:33:04;6.10;;;2.00;;
62925;SDS011;55732;52.248;-0.844;2022-07-11T08:35:30;7.90;;;2.30;;
62925;SDS011;55732;52.248;-0.844;2022-07-11T08:37:55;7.90;;;2.10;;
62925;SDS011;55732;52.248;-0.844;2022-07-11T08:40:21;7.60;;;1.90;;
62925;SDS011;55732;52.248;-0.844;2022-07-11T08:45:15;9.90;;;2.00;;
62925;SDS011;55732;52.248;-0.844;2022-07-11T08:47:43;8.30;;;1.90;;
62925;SDS011;55732;52.248;-0.844;2022-07-11T08:50:10;8.50;;;1.60;;
62925;SDS011;55732;52.248;-0.844;2022-07-11T08:52:37;8.20;;;1.70;;
62925;SDS011;55732;52.248;-0.844;2022-07-11T08:55:04;12.80;;;1.90;;
62925;SDS011;55732;52.248;-0.844;2022-07-11T08:57:38;44.20;;;3.20;;
62925;SDS011;55732;52.248;-0.844;2022-07-11T09:00:04;6.50;;;1.50;;
62925;SDS011;55732;52.248;-0.844;2022-07-11T09:02:33;8.50;;;1.50;;
62925;SDS011;55732;52.248;-0.844;2022-07-11T09:04:59;7.70;;;1.70;;
62925;SDS011;55732;52.248;-0.844;2022-07-11T09:07:27;4.70;;;1.30;;
62925;SDS011;55732;52.248;-0.844;2022-07-11T09:09:53;6.30;;;1.40;;
62925;SDS011;55732;52.248;-0.844;2022-07-11T09:12:19;2.10;;;1.10;;
62925;SDS011;55732;52.248;-0.844;2022-07-11T09:14:48;3.70;;;1.20;;
62925;SDS011;55732;52.248;-0.844;2022-07-11T09:17:15;4.90;;;1.50;;
62925;SDS011;55732;52.248;-0.844;2022-07-11T09:19:48;2.20;;;1.30;;
62925;SDS011;55732;52.248;-0.844;2022-07-11T09:22:16;3.40;;;1.40;;
62925;SDS011;55732;52.248;-0.844;2022-07-11T09:25:08;3.60;;;1.10;;
62925;SDS011;55732;52.248;-0.844;2022-07-11T09:27:59;1.60;;;1.20;;
62925;SDS011;55732;52.248;-0.844;2022-07-11T09:30:29;2.40;;;1.10;;
62925;SDS011;55732;52.248;-0.844;2022-07-11T09:33:07;1.10;;;1.10;;
62925;SDS011;55732;52.248;-0.844;2022-07-11T09:35:38;1.80;;;1.00;;
62925;SDS011;55732;52.248;-0.844;2022-07-11T09:38:08;1.60;;;1.10;;
62925;SDS011;55732;52.248;-0.844;2022-07-11T09:40:38;1.40;;;0.90;;
62925;SDS011;55732;52.248;-0.844;2022-07-11T09:43:08;2.80;;;1.10;;
62925;SDS011;55732;52.248;-0.844;2022-07-11T09:45:34;0.90;;;0.90;;
62925;SDS011;55732;52.248;-0.844;2022-07-11T09:48:10;1.10;;;1.00;;
62925;SDS011;55732;52.248;-0.844;2022-07-11T09:50:37;1.30;;;1.20;;
62925;SDS011;55732;52.248;-0.844;2022-07-11T09:53:11;1.70;;;1.00;;
62925;SDS011;55732;52.248;-0.844;2022-07-11T09:55:44;3.60;;;1.10;;
62925;SDS011;55732;52.248;-0.844;2022-07-11T09:58:14;2.00;;;1.10;;
62925;SDS011;55732;52.248;-0.844;2022-07-11T10:00:40;1.50;;;1.00;;
62925;SDS011;55732;52.248;-0.844;2022-07-11T10:03:07;2.90;;;1.10;;
62925;SDS011;55732;52.248;-0.844;2022-07-11T10:05:34;3.60;;;1.10;;
62925;SDS011;55732;52.248;-0.844;2022-07-11T10:08:00;5.00;;;1.40;;
62925;SDS011;55732;52.248;-0.844;2022-07-11T10:10:27;8.20;;;1.20;;
62925;SDS011;55732;52.248;-0.844;2022-07-11T10:12:54;1.60;;;1.20;;
62925;SDS011;55732;52.248;-0.844;2022-07-11T10:15:31;4.00;;;1.30;;
62925;SDS011;55732;52.248;-0.844;2022-07-11T10:21:30;2.50;;;0.90;;
62925;SDS011;55732;52.248;-0.844;2022-07-11T10:24:09;2.30;;;1.20;;
62925;SDS011;55732;52.248;-0.844;2022-07-11T10:27:00;6.90;;;1.60;;
62925;SDS011;55732;52.248;-0.844;2022-07-11T10:29:33;1.00;;;1.00;;
62925;SDS011;55732;52.248;-0.844;2022-07-11T10:32:08;1.60;;;1.40;;
62925;SDS011;55732;52.248;-0.844;2022-07-11T10:34:35;2.50;;;1.30;;
62925;SDS011;55732;52.248;-0.844;2022-07-11T10:37:02;1.20;;;1.10;;
62925;SDS011;55732;52.248;-0.844;2022-07-11T10:39:29;2.40;;;1.20;;
62925;SDS011;55732;52.248;-0.844;2022-07-11T10:41:59;1.40;;;1.20;;
62925;SDS011;55732;52.248;-0.844;2022-07-11T10:44:27;2.50;;;1.30;;
62925;SDS011;55732;52.248;-0.844;2022-07-11T10:46:54;2.10;;;1.40;;
62925;SDS011;55732;52.248;-0.844;2022-07-11T10:49:32;1.60;;;1.40;;
62925;SDS011;55732;52.248;-0.844;2022-07-11T10:52:06;2.70;;;1.60;;
62925;SDS011;55732;52.248;-0.844;2022-07-11T10:57:21;1.40;;;1.30;;
62925;SDS011;55732;52.248;-0.844;2022-07-11T11:00:03;1.50;;;1.30;;
62925;SDS011;55732;52.248;-0.844;2022-07-11T11:02:31;1.90;;;1.20;;
62925;SDS011;55732;52.248;-0.844;2022-07-11T11:04:57;3.40;;;1.30;;
62925;SDS011;55732;52.248;-0.844;2022-07-11T11:10:07;1.40;;;1.30;;
62925;SDS011;55732;52.248;-0.844;2022-07-11T11:15:34;1.90;;;1.50;;
62925;SDS011;55732;52.248;-0.844;2022-07-11T11:20:47;2.80;;;1.40;;
62925;SDS011;55732;52.248;-0.844;2022-07-11T11:23:33;2.50;;;1.40;;
62925;SDS011;55732;52.248;-0.844;2022-07-11T11:26:05;5.20;;;1.40;;
62925;SDS011;55732;52.248;-0.844;2022-07-11T11:28:34;2.10;;;1.50;;
62925;SDS011;55732;52.248;-0.844;2022-07-11T11:31:02;3.80;;;1.50;;
62925;SDS011;55732;52.248;-0.844;2022-07-11T11:33:29;1.60;;;1.30;;
62925;SDS011;55732;52.248;-0.844;2022-07-11T11:36:09;3.50;;;1.60;;
62925;SDS011;55732;52.248;-0.844;2022-07-11T11:38:35;1.50;;;1.40;;
62925;SDS011;55732;52.248;-0.844;2022-07-11T11:41:05;1.90;;;1.30;;
62925;SDS011;55732;52.248;-0.844;2022-07-11T11:43:31;4.80;;;1.50;;
62925;SDS011;55732;52.248;-0.844;2022-07-11T11:45:57;4.60;;;1.50;;
62925;SDS011;55732;52.248;-0.844;2022-07-11T11:58:48;2.20;;;1.50;;
62925;SDS011;55732;52.248;-0.844;2022-07-11T12:03:52;3.60;;;1.40;;
62925;SDS011;55732;52.248;-0.844;2022-07-11T12:06:24;4.50;;;1.60;;
62925;SDS011;55732;52.248;-0.844;2022-07-11T12:08:50;2.60;;;1.40;;
62925;SDS011;55732;52.248;-0.844;2022-07-11T12:11:16;4.60;;;1.70;;
62925;SDS011;55732;52.248;-0.844;2022-07-11T12:13:42;3.00;;;1.50;;
62925;SDS011;55732;52.248;-0.844;2022-07-11T12:16:15;3.10;;;1.30;;
62925;SDS011;55732;52.248;-0.844;2022-07-11T12:19:00;5.80;;;1.50;;
62925;SDS011;55732;52.248;-0.844;2022-07-11T12:21:27;3.30;;;1.40;;
62925;SDS011;55732;52.248;-0.844;2022-07-11T12:23:54;2.20;;;1.40;;
62925;SDS011;55732;52.248;-0.844;2022-07-11T12:26:23;4.10;;;1.50;;
62925;SDS011;55732;52.248;-0.844;2022-07-11T12:34:10;2.80;;;1.50;;
62925;SDS011;55732;52.248;-0.844;2022-07-11T12:36:36;2.40;;;1.20;;
62925;SDS011;55732;52.248;-0.844;2022-07-11T12:39:02;3.30;;;1.70;;
62925;SDS011;55732;52.248;-0.844;2022-07-11T12:41:29;4.50;;;1.50;;
62925;SDS011;55732;52.248;-0.844;2022-07-11T12:43:55;5.10;;;1.60;;
62925;SDS011;55732;52.248;-0.844;2022-07-11T12:46:40;1.80;;;1.30;;
62925;SDS011;55732;52.248;-0.844;2022-07-11T12:49:06;1.60;;;1.50;;
62925;SDS011;55732;52.248;-0.844;2022-07-11T12:51:39;4.00;;;1.50;;
62925;SDS011;55732;52.248;-0.844;2022-07-11T12:54:16;3.40;;;1.70;;
62925;SDS011;55732;52.248;-0.844;2022-07-11T12:56:55;6.20;;;1.60;;
62925;SDS011;55732;52.248;-0.844;2022-07-11T12:59:24;3.10;;;1.80;;
62925;SDS011;55732;52.248;-0.844;2022-07-11T13:10:10;1.60;;;1.30;;
62925;SDS011;55732;52.248;-0.844;2022-07-11T13:12:47;1.50;;;1.30;;
62925;SDS011;55732;52.248;-0.844;2022-07-11T13:15:14;5.20;;;1.60;;
62925;SDS011;55732;52.248;-0.844;2022-07-11T13:17:49;2.90;;;1.30;;
62925;SDS011;55732;52.248;-0.844;2022-07-11T13:20:22;2.40;;;1.40;;
62925;SDS011;55732;52.248;-0.844;2022-07-11T13:22:50;3.00;;;1.50;;
62925;SDS011;55732;52.248;-0.844;2022-07-11T13:27:42;3.60;;;1.50;;
62925;SDS011;55732;52.248;-0.844;2022-07-11T13:30:10;1.30;;;1.20;;
62925;SDS011;55732;52.248;-0.844;2022-07-11T13:32:40;2.20;;;1.50;;
62925;SDS011;55732;52.248;-0.844;2022-07-11T13:35:06;4.50;;;1.50;;
62925;SDS011;55732;52.248;-0.844;2022-07-11T13:37:33;3.70;;;1.60;;
62925;SDS011;55732;52.248;-0.844;2022-07-11T13:40:06;1.90;;;1.50;;
62925;SDS011;55732;52.248;-0.844;2022-07-11T13:42:34;3.40;;;1.60;;
62925;SDS011;55732;52.248;-0.844;2022-07-11T13:45:00;2.60;;;1.40;;
62925;SDS011;55732;52.248;-0.844;2022-07-11T13:47:27;4.00;;;1.40;;
62925;SDS011;55732;52.248;-0.844;2022-07-11T13:49:53;3.40;;;1.50;;
62925;SDS011;55732;52.248;-0.844;2022-07-11T13:52:18;3.90;;;1.40;;
62925;SDS011;55732;52.248;-0.844;2022-07-11T13:54:44;5.30;;;1.60;;
62925;SDS011;55732;52.248;-0.844;2022-07-11T13:57:10;3.50;;;1.40;;
62925;SDS011;55732;52.248;-0.844;2022-07-11T13:59:36;3.20;;;1.50;;
62925;SDS011;55732;52.248;-0.844;2022-07-11T14:02:02;5.80;;;1.40;;
62925;SDS011;55732;52.248;-0.844;2022-07-11T14:04:28;3.00;;;1.50;;
62925;SDS011;55732;52.248;-0.844;2022-07-11T14:06:54;4.50;;;1.60;;
62925;SDS011;55732;52.248;-0.844;2022-07-11T14:09:19;4.80;;;1.40;;
62925;SDS011;55732;52.248;-0.844;2022-07-11T14:11:45;4.20;;;1.50;;
62925;SDS011;55732;52.248;-0.844;2022-07-11T14:14:10;5.00;;;1.40;;
62925;SDS011;55732;52.248;-0.844;2022-07-11T14:16:36;1.60;;;1.50;;
62925;SDS011;55732;52.248;-0.844;2022-07-11T14:19:02;3.70;;;1.50;;
62925;SDS011;55732;52.248;-0.844;2022-07-11T14:21:31;3.10;;;1.50;;
62925;SDS011;55732;52.248;-0.844;2022-07-11T14:23:57;3.40;;;1.50;;
62925;SDS011;55732;52.248;-0.844;2022-07-11T14:26:22;7.70;;;1.60;;
62925;SDS011;55732;52.248;-0.844;2022-07-11T14:28:48;2.80;;;1.20;;
62925;SDS011;55732;52.248;-0.844;2022-07-11T14:31:17;1.60;;;1.50;;
62925;SDS011;55732;52.248;-0.844;2022-07-11T14:33:42;4.60;;;1.50;;
62925;SDS011;55732;52.248;-0.844;2022-07-11T14:36:08;2.40;;;1.50;;
62925;SDS011;55732;52.248;-0.844;2022-07-11T14:38:33;2.10;;;1.10;;
62925;SDS011;55732;52.248;-0.844;2022-07-11T14:40:59;2.70;;;1.40;;
62925;SDS011;55732;52.248;-0.844;2022-07-11T14:43:25;1.50;;;1.40;;
62925;SDS011;55732;52.248;-0.844;2022-07-11T14:45:53;1.40;;;1.30;;
62925;SDS011;55732;52.248;-0.844;2022-07-11T14:48:19;3.70;;;1.40;;
62925;SDS011;55732;52.248;-0.844;2022-07-11T14:50:45;2.20;;;1.20;;
62925;SDS011;55732;52.248;-0.844;2022-07-11T14:53:10;1.50;;;1.30;;
62925;SDS011;55732;52.248;-0.844;2022-07-11T14:55:36;3.70;;;1.20;;
62925;SDS011;55732;52.248;-0.844;2022-07-11T14:58:01;5.10;;;1.40;;
62925;SDS011;55732;52.248;-0.844;2022-07-11T15:00:26;3.30;;;1.20;;
62925;SDS011;55732;52.248;-0.844;2022-07-11T15:02:52;1.30;;;1.20;;
62925;SDS011;55732;52.248;-0.844;2022-07-11T15:05:36;2.40;;;1.40;;
62925;SDS011;55732;52.248;-0.844;2022-07-11T15:08:01;1.70;;;1.40;;
62925;SDS011;55732;52.248;-0.844;2022-07-11T15:10:45;2.60;;;1.40;;
62925;SDS011;55732;52.248;-0.844;2022-07-11T15:13:29;3.00;;;1.50;;
62925;SDS011;55732;52.248;-0.844;2022-07-11T15:15:55;4.10;;;1.50;;
62925;SDS011;55732;52.248;-0.844;2022-07-11T15:18:20;4.40;;;1.60;;
62925;SDS011;55732;52.248;-0.844;2022-07-11T15:20:46;2.60;;;1.40;;
62925;SDS011;55732;52.248;-0.844;2022-07-11T15:23:12;1.80;;;1.30;;
62925;SDS011;55732;52.248;-0.844;2022-07-11T15:25:38;4.80;;;1.60;;
62925;SDS011;55732;52.248;-0.844;2022-07-11T15:28:03;1.80;;;1.50;;